• Join FlightAware (Why Join?)
  • Login
  • US Flag 
11:18PM EST


 

Airport Tracker/Info


-or-


 

Live Flight TrackerFlight Track Log ✈ EJA831 ✈ 07-Jul-2014 ✈ KIAD - KLKP

Flight Track Log - Related Links

Times and Time Zones

All times are in EDT time to prevent confusion due to time zone crossing. See the EJA831 flight status page for this flight to view local times or setup timezone preferences in your user account.

Time Position Orientation Groundspeed Altitude Reporting Facility
EDT Latitude Longitude Course Direction KTS MPH feet Rate Location/Type
09:22AM 38.9667 -77.5167 314° West 210 242 3,600  Level Potomac TRACON
09:23AM 39.0167 -77.5833 314° West 231 266 6,500 2,040 Climbing Potomac TRACON
09:24AM 39.0833 -77.6167 339° North 298 343 7,700 1,200 Climbing Potomac TRACON
09:25AM 39.1500 -77.6000 11° North 310 357 9,000 600 Climbing Potomac TRACON
09:26AM 39.2000 -77.5000 57° Northeast 316 364 9,000  Level Potomac TRACON
09:27AM 39.2333 -77.4000 67° East 321 369 9,000  Level Potomac TRACON
09:28AM 39.2667 -77.2833 70° East 310 357 9,000 180 Level Potomac TRACON
09:29AM 39.3000 -77.1833 67° East 313 360 9,400 1,260 Climbing Potomac TRACON
09:30AM 39.3333 -77.0833 67° East 325 374 11,600 2,040 Climbing Potomac TRACON
09:31AM 39.3328 -76.9761 90° East 348 400 13,400 1,800 Climbing Washington Center
09:32AM 39.3153 -76.8497 100° East 348 400 15,100 1,620 Climbing Washington Center
09:33AM 39.2958 -76.7153 101° East 362 417 16,600 1,440 Climbing Washington Center
09:34AM 39.2783 -76.5728 99° East 384 442 18,000 1,320 Climbing Washington Center
09:35AM 39.2628 -76.4333 98° East 390 449 19,400 1,380 Climbing Washington Center
09:36AM 39.2428 -76.2936 100° East 395 455 20,800 1,380 Climbing Washington Center
09:37AM 39.2247 -76.1542 99° East 395 455 22,200 1,080 Climbing Washington Center
09:38AM 39.2064 -76.0122 99° East 395 455 23,000 360 Climbing Washington Center
09:39AM 39.2069 -75.8622 90° East 400 460 23,000 600 Level Washington Center
09:40AM 39.2906 -75.7553 45° Northeast 387 445 24,200 1,320 Climbing Washington Center
09:41AM 39.3633 -75.6639 44° Northeast 392 451 25,700 1,560 Climbing Washington Center
09:42AM 39.4489 -75.5511 45° Northeast 398 458 27,400 1,380 Climbing Washington Center
09:43AM 39.5197 -75.4597 45° Northeast 393 452 28,500 1,200 Climbing Washington Center
09:44AM 39.6069 -75.3464 45° Northeast 393 452 29,800 1,200 Climbing Washington Center
09:45AM 39.6756 -75.2464 48° Northeast 398 458 30,900 540 Climbing Washington Center
09:46AM 39.7625 -75.1192 48° Northeast 411 473 31,000  Climbing Washington Center
09:48AM 39.9072 -74.9194 47° Northeast 446 513 31,000  Level New York Center
09:49AM 39.9839 -74.8156 46° Northeast 446 513 31,000  Level New York Center
09:50AM 40.0808 -74.7153 38° Northeast 441 507 31,000  Level New York Center
09:51AM 40.1842 -74.6236 34° Northeast 441 507 31,000  Level New York Center
09:52AM 40.2831 -74.5256 37° Northeast 449 517 31,000  Level New York Center
09:53AM 40.3839 -74.4358 34° Northeast 444 511 31,000  Level New York Center
09:54AM 40.4911 -74.3350 36° Northeast 436 502 31,000  Level New York Center
09:55AM 40.5919 -74.2392 36° Northeast 431 496 31,000  Level New York Center
09:57AM 40.7517 -74.0881 36° Northeast 438 504 31,000  Level Boston Center
09:58AM 40.8497 -73.9936 36° Northeast 435 501 31,000  Level Boston Center
09:59AM 40.9647 -73.9483 17° North 436 502 31,000  Level Boston Center
10:00AM 41.0828 -73.9386 North 428 493 31,000  Level Boston Center
10:01AM 41.2022 -73.9292 North 427 491 31,000  Level Boston Center
10:02AM 41.3219 -73.9197 North 427 491 31,000  Level Boston Center
10:03AM 41.4642 -73.9086 North 427 491 31,000  Level Boston Center
10:04AM 41.5833 -73.8986 North 427 491 31,000  Level Boston Center
10:05AM 41.7022 -73.8886 North 428 493 31,000  Level Boston Center
10:06AM 41.8200 -73.8792 North 429 494 31,000  Level Boston Center
10:07AM 41.9406 -73.8697 North 430 495 31,000  Level Boston Center
10:08AM 42.0608 -73.8639 North 430 495 31,000 -480 Level Boston Center
10:09AM 42.2056 -73.8708 358° North 430 495 30,100 -1,260 Descending Boston Center
10:10AM 42.3242 -73.8761 358° North 430 495 28,500 -1,500 Descending Boston Center
10:11AM 42.4456 -73.8808 358° North 430 495 27,100 -720 Descending Boston Center
10:12AM 42.5678 -73.8864 358° North 433 498 27,000 -60 Descending Boston Center
10:13AM 42.6861 -73.8919 358° North 431 496 27,000  Level Boston Center
10:14AM 42.8047 -73.8964 358° North 429 494 27,000  Level Boston Center
10:15AM 42.9242 -73.9022 358° North 428 493 27,000  Level Boston Center
10:16AM 43.0425 -73.9081 358° North 428 493 27,000 -420 Level Boston Center
10:17AM 43.1803 -73.9131 358° North 428 493 26,200 -1,260 Descending Boston Center
10:18AM 43.2983 -73.9183 358° North 426 490 24,500 -1,080 Descending Boston Center
10:19AM 43.4119 -73.9222 359° North 414 476 24,000 -360 Descending Boston Center
10:20AM 43.5236 -73.9297 357° North 408 470 23,800 -1,140 Descending Boston Center
10:21AM 43.6364 -73.9336 359° North 404 465 21,800 -1,980 Descending Boston Center
10:22AM 43.7433 -73.9411 357° North 390 449 19,800 -2,100 Descending Boston Center
10:23AM 43.8297 -73.9922 337° Northwest 341 392 17,600 -2,280 Descending Boston Center
10:24AM 43.9275 -74.0475 338° Northwest 320 368 15,200 -2,160 Descending Boston Center
10:25AM 44.0047 -74.0919 338° Northwest 308 354 13,200 -1,980 Descending Boston Center
10:26AM 44.0825 -74.1367 338° Northwest 303 349 11,200 -1,140 Descending Boston Center
10:27AM 44.1561 -74.1742 340° North 290 334 11,000 -120 Descending Boston Center
10:28AM 44.2283 -74.1847 354° North 271 312 11,000  Level Boston Center
10:29AM 44.2825 -74.2194 335° Northwest 247 284 11,000 -300 Level Boston Center
10:30AM 44.3308 -74.2675 325° Northwest 230 265 10,400 -1,020 Descending Boston Center
10:31AM 44.3792 -74.3217 321° Northwest 226 260 9,000 -720 Descending Boston Center
10:32AM 44.3964 -74.3856 291° West 193 222 9,000 -1,020 Level Boston Center
10:34AM 44.4178 -74.4633 291° West 182 209 6,900 -1,800 Descending Boston Center
10:35AM 44.4342 -74.5261 290° West 179 206 5,400 -960 Descending Boston Center
10:36AM 44.3989 -74.4964 149° Southeast 203 234 5,000 -240 Descending Boston Center
10:37AM 44.3861 -74.4094 102° East 220 253 5,000  Level Boston Center
10:38AM 44.3664 -74.3306 109° East 220 253 5,000  Level Boston Center
10:39AM 44.3439 -74.2489 111° Southeast 220 253 5,000  Level Boston Center
10:40AM 44.3228 -74.1733 111° Southeast 218 251 5,000 -540 Level Boston Center
10:41AM 44.3058 -74.1106 111° Southeast 171 197 4,000 -720 Descending Boston Center
10:43AM 44.2825 -74.0022 107° East 122 140 2,700 -600 Descending Boston Center
10:44AM 44.2736 -73.9631 108° East 114 131 2,200 -480 Descending Boston Center